sensor_id;sensor_type;location;lat;lon;timestamp;temperature;humidity
70734;DHT22;58320;48.804;9.252;2023-11-21T00:00:19;7.60;99.90
70734;DHT22;58320;48.804;9.252;2023-11-21T00:02:45;7.60;99.90
70734;DHT22;58320;48.804;9.252;2023-11-21T00:05:13;7.70;99.90
70734;DHT22;58320;48.804;9.252;2023-11-21T00:07:40;7.60;99.90
70734;DHT22;58320;48.804;9.252;2023-11-21T00:10:07;7.70;99.90
70734;DHT22;58320;48.804;9.252;2023-11-21T00:12:34;7.70;99.90
70734;DHT22;58320;48.804;9.252;2023-11-21T00:15:00;7.70;99.90
70734;DHT22;58320;48.804;9.252;2023-11-21T00:17:27;7.70;99.90
70734;DHT22;58320;48.804;9.252;2023-11-21T00:19:53;7.80;99.90
70734;DHT22;58320;48.804;9.252;2023-11-21T00:22:19;7.70;99.90
70734;DHT22;58320;48.804;9.252;2023-11-21T00:24:45;7.70;99.90
70734;DHT22;58320;48.804;9.252;2023-11-21T00:27:11;7.70;99.90
70734;DHT22;58320;48.804;9.252;2023-11-21T00:29:37;7.70;99.90
70734;DHT22;58320;48.804;9.252;2023-11-21T00:32:04;7.70;99.90
70734;DHT22;58320;48.804;9.252;2023-11-21T00:34:31;7.70;99.90
70734;DHT22;58320;48.804;9.252;2023-11-21T00:36:58;7.80;99.90
70734;DHT22;58320;48.804;9.252;2023-11-21T00:39:24;7.80;99.90
70734;DHT22;58320;48.804;9.252;2023-11-21T00:41:50;7.80;99.60
70734;DHT22;58320;48.804;9.252;2023-11-21T00:44:16;7.90;99.50
70734;DHT22;58320;48.804;9.252;2023-11-21T00:46:42;7.90;99.50
70734;DHT22;58320;48.804;9.252;2023-11-21T00:49:07;7.90;99.20
70734;DHT22;58320;48.804;9.252;2023-11-21T00:51:33;7.90;98.90
70734;DHT22;58320;48.804;9.252;2023-11-21T00:54:00;7.90;98.90
70734;DHT22;58320;48.804;9.252;2023-11-21T00:56:26;7.90;99.30
70734;DHT22;58320;48.804;9.252;2023-11-21T00:58:52;7.90;99.60
70734;DHT22;58320;48.804;9.252;2023-11-21T01:01:19;7.90;99.60
70734;DHT22;58320;48.804;9.252;2023-11-21T01:03:48;7.90;99.30
70734;DHT22;58320;48.804;9.252;2023-11-21T01:06:14;7.90;99.70
70734;DHT22;58320;48.804;9.252;2023-11-21T01:08:40;7.90;99.40
70734;DHT22;58320;48.804;9.252;2023-11-21T01:11:06;7.90;99.50
70734;DHT22;58320;48.804;9.252;2023-11-21T01:13:40;7.90;99.00
70734;DHT22;58320;48.804;9.252;2023-11-21T01:16:06;7.90;99.10
70734;DHT22;58320;48.804;9.252;2023-11-21T01:18:33;8.00;99.00
70734;DHT22;58320;48.804;9.252;2023-11-21T01:20:59;8.00;99.00
70734;DHT22;58320;48.804;9.252;2023-11-21T01:23:27;8.00;99.10
70734;DHT22;58320;48.804;9.252;2023-11-21T01:25:55;8.00;99.20
70734;DHT22;58320;48.804;9.252;2023-11-21T01:28:21;8.00;99.20
70734;DHT22;58320;48.804;9.252;2023-11-21T01:30:48;8.00;99.50
70734;DHT22;58320;48.804;9.252;2023-11-21T01:33:14;8.00;99.30
70734;DHT22;58320;48.804;9.252;2023-11-21T01:35:41;8.00;99.10
70734;DHT22;58320;48.804;9.252;2023-11-21T01:38:07;8.00;99.70
70734;DHT22;58320;48.804;9.252;2023-11-21T01:40:34;8.00;99.70
70734;DHT22;58320;48.804;9.252;2023-11-21T01:43:00;8.00;99.90
70734;DHT22;58320;48.804;9.252;2023-11-21T01:45:29;8.00;99.90
70734;DHT22;58320;48.804;9.252;2023-11-21T01:47:56;8.00;99.80
70734;DHT22;58320;48.804;9.252;2023-11-21T01:50:24;8.00;99.60
70734;DHT22;58320;48.804;9.252;2023-11-21T01:52:50;8.00;99.80
70734;DHT22;58320;48.804;9.252;2023-11-21T01:55:17;8.00;99.70
70734;DHT22;58320;48.804;9.252;2023-11-21T01:57:44;8.00;99.70
70734;DHT22;58320;48.804;9.252;2023-11-21T02:00:12;8.00;99.60
70734;DHT22;58320;48.804;9.252;2023-11-21T02:02:45;8.00;99.20
70734;DHT22;58320;48.804;9.252;2023-11-21T02:05:12;8.00;99.00
70734;DHT22;58320;48.804;9.252;2023-11-21T02:07:39;8.00;98.90
70734;DHT22;58320;48.804;9.252;2023-11-21T02:10:07;8.00;99.10
70734;DHT22;58320;48.804;9.252;2023-11-21T02:12:33;8.10;97.90
70734;DHT22;58320;48.804;9.252;2023-11-21T02:15:01;8.10;98.20
70734;DHT22;58320;48.804;9.252;2023-11-21T02:17:30;8.10;98.40
70734;DHT22;58320;48.804;9.252;2023-11-21T02:19:57;8.10;98.10
70734;DHT22;58320;48.804;9.252;2023-11-21T02:22:27;8.10;97.90
70734;DHT22;58320;48.804;9.252;2023-11-21T02:24:56;8.10;97.10
70734;DHT22;58320;48.804;9.252;2023-11-21T02:27:23;8.10;97.10
70734;DHT22;58320;48.804;9.252;2023-11-21T02:29:49;8.10;97.10
70734;DHT22;58320;48.804;9.252;2023-11-21T02:32:15;8.10;97.20
70734;DHT22;58320;48.804;9.252;2023-11-21T02:34:45;8.10;96.90
70734;DHT22;58320;48.804;9.252;2023-11-21T02:37:11;8.10;96.80
70734;DHT22;58320;48.804;9.252;2023-11-21T02:39:36;8.10;97.20
70734;DHT22;58320;48.804;9.252;2023-11-21T02:42:03;8.10;96.90
70734;DHT22;58320;48.804;9.252;2023-11-21T02:44:29;8.20;96.80
70734;DHT22;58320;48.804;9.252;2023-11-21T02:46:55;8.20;96.70
70734;DHT22;58320;48.804;9.252;2023-11-21T02:49:23;8.20;96.50
70734;DHT22;58320;48.804;9.252;2023-11-21T02:51:48;8.20;96.70
70734;DHT22;58320;48.804;9.252;2023-11-21T02:54:14;8.20;96.40
70734;DHT22;58320;48.804;9.252;2023-11-21T02:56:42;8.20;96.30
70734;DHT22;58320;48.804;9.252;2023-11-21T02:59:07;8.20;95.90
70734;DHT22;58320;48.804;9.252;2023-11-21T03:01:34;8.20;96.00
70734;DHT22;58320;48.804;9.252;2023-11-21T03:03:59;8.20;96.10
70734;DHT22;58320;48.804;9.252;2023-11-21T03:06:25;8.20;96.50
70734;DHT22;58320;48.804;9.252;2023-11-21T03:08:51;8.20;96.40
70734;DHT22;58320;48.804;9.252;2023-11-21T03:11:17;8.20;96.40
70734;DHT22;58320;48.804;9.252;2023-11-21T03:13:42;8.10;96.50
70734;DHT22;58320;48.804;9.252;2023-11-21T03:16:12;8.10;96.80
70734;DHT22;58320;48.804;9.252;2023-11-21T03:18:38;8.10;96.20
70734;DHT22;58320;48.804;9.252;2023-11-21T03:21:04;8.10;96.50
70734;DHT22;58320;48.804;9.252;2023-11-21T03:23:31;8.10;96.10
70734;DHT22;58320;48.804;9.252;2023-11-21T03:25:57;8.10;96.60
70734;DHT22;58320;48.804;9.252;2023-11-21T03:28:23;8.10;96.70
70734;DHT22;58320;48.804;9.252;2023-11-21T03:30:49;8.10;96.70
70734;DHT22;58320;48.804;9.252;2023-11-21T03:33:15;8.10;97.10
70734;DHT22;58320;48.804;9.252;2023-11-21T03:35:41;8.10;96.50
70734;DHT22;58320;48.804;9.252;2023-11-21T03:38:07;8.10;96.40
70734;DHT22;58320;48.804;9.252;2023-11-21T03:40:35;8.00;95.20
70734;DHT22;58320;48.804;9.252;2023-11-21T03:43:01;8.10;95.00
70734;DHT22;58320;48.804;9.252;2023-11-21T03:45:26;8.10;95.00
70734;DHT22;58320;48.804;9.252;2023-11-21T03:47:52;8.00;95.10
70734;DHT22;58320;48.804;9.252;2023-11-21T03:50:18;8.00;95.30
70734;DHT22;58320;48.804;9.252;2023-11-21T03:52:44;8.00;95.50
70734;DHT22;58320;48.804;9.252;2023-11-21T03:55:10;8.10;95.20
70734;DHT22;58320;48.804;9.252;2023-11-21T03:57:36;8.00;95.40
70734;DHT22;58320;48.804;9.252;2023-11-21T04:00:02;8.00;95.50
70734;DHT22;58320;48.804;9.252;2023-11-21T04:03:51;8.00;95.80
70734;DHT22;58320;48.804;9.252;2023-11-21T04:06:17;8.00;95.70
70734;DHT22;58320;48.804;9.252;2023-11-21T04:08:44;8.00;95.70
70734;DHT22;58320;48.804;9.252;2023-11-21T04:11:10;8.00;95.60
70734;DHT22;58320;48.804;9.252;2023-11-21T04:13:38;8.00;95.60
70734;DHT22;58320;48.804;9.252;2023-11-21T04:16:08;8.00;95.30
70734;DHT22;58320;48.804;9.252;2023-11-21T04:18:36;8.10;95.50
70734;DHT22;58320;48.804;9.252;2023-11-21T04:21:03;8.00;95.60
70734;DHT22;58320;48.804;9.252;2023-11-21T04:23:29;8.00;95.90
70734;DHT22;58320;48.804;9.252;2023-11-21T04:25:57;8.00;96.00
70734;DHT22;58320;48.804;9.252;2023-11-21T04:28:25;8.00;95.70
70734;DHT22;58320;48.804;9.252;2023-11-21T04:30:51;8.00;97.00
70734;DHT22;58320;48.804;9.252;2023-11-21T04:33:17;8.00;97.50
70734;DHT22;58320;48.804;9.252;2023-11-21T04:35:43;7.90;99.20
70734;DHT22;58320;48.804;9.252;2023-11-21T04:38:08;7.90;99.30
70734;DHT22;58320;48.804;9.252;2023-11-21T04:40:34;7.90;99.60
70734;DHT22;58320;48.804;9.252;2023-11-21T04:43:00;7.90;99.60
70734;DHT22;58320;48.804;9.252;2023-11-21T04:45:26;7.90;99.90
70734;DHT22;58320;48.804;9.252;2023-11-21T04:47:52;7.80;99.90
70734;DHT22;58320;48.804;9.252;2023-11-21T04:50:18;7.80;99.90
70734;DHT22;58320;48.804;9.252;2023-11-21T04:52:44;7.80;99.90
70734;DHT22;58320;48.804;9.252;2023-11-21T04:55:10;7.70;99.90
70734;DHT22;58320;48.804;9.252;2023-11-21T04:57:36;7.60;99.90
70734;DHT22;58320;48.804;9.252;2023-11-21T05:00:03;7.60;99.90
70734;DHT22;58320;48.804;9.252;2023-11-21T05:02:34;7.60;99.90
70734;DHT22;58320;48.804;9.252;2023-11-21T05:05:00;7.60;99.90
70734;DHT22;58320;48.804;9.252;2023-11-21T05:07:26;7.60;99.90
70734;DHT22;58320;48.804;9.252;2023-11-21T05:09:54;7.60;99.90
70734;DHT22;58320;48.804;9.252;2023-11-21T05:12:22;7.60;99.90
70734;DHT22;58320;48.804;9.252;2023-11-21T05:14:51;7.60;99.90
70734;DHT22;58320;48.804;9.252;2023-11-21T05:17:17;7.60;99.90
70734;DHT22;58320;48.804;9.252;2023-11-21T05:19:42;7.60;99.90
70734;DHT22;58320;48.804;9.252;2023-11-21T05:22:10;7.60;99.90
70734;DHT22;58320;48.804;9.252;2023-11-21T05:24:37;7.60;99.90
70734;DHT22;58320;48.804;9.252;2023-11-21T05:27:04;7.60;99.90
70734;DHT22;58320;48.804;9.252;2023-11-21T05:29:30;7.60;99.90
70734;DHT22;58320;48.804;9.252;2023-11-21T05:31:56;7.60;99.90
70734;DHT22;58320;48.804;9.252;2023-11-21T05:34:22;7.60;99.90
70734;DHT22;58320;48.804;9.252;2023-11-21T05:36:50;7.60;99.90
70734;DHT22;58320;48.804;9.252;2023-11-21T05:39:16;7.60;99.90
70734;DHT22;58320;48.804;9.252;2023-11-21T05:41:43;7.60;99.90
70734;DHT22;58320;48.804;9.252;2023-11-21T05:44:08;7.60;99.90
70734;DHT22;58320;48.804;9.252;2023-11-21T05:46:34;7.60;99.90
70734;DHT22;58320;48.804;9.252;2023-11-21T05:49:00;7.60;99.90
70734;DHT22;58320;48.804;9.252;2023-11-21T05:51:26;7.60;99.90
70734;DHT22;58320;48.804;9.252;2023-11-21T05:53:52;7.60;99.70
70734;DHT22;58320;48.804;9.252;2023-11-21T05:56:17;7.60;99.60
70734;DHT22;58320;48.804;9.252;2023-11-21T05:58:43;7.60;99.80
70734;DHT22;58320;48.804;9.252;2023-11-21T06:01:09;7.60;99.80
70734;DHT22;58320;48.804;9.252;2023-11-21T06:03:38;7.60;99.80
70734;DHT22;58320;48.804;9.252;2023-11-21T06:06:04;7.60;99.80
70734;DHT22;58320;48.804;9.252;2023-11-21T06:08:30;7.60;99.80
70734;DHT22;58320;48.804;9.252;2023-11-21T06:10:56;7.60;99.70
70734;DHT22;58320;48.804;9.252;2023-11-21T06:13:22;7.60;99.70
70734;DHT22;58320;48.804;9.252;2023-11-21T06:15:52;7.60;99.80
70734;DHT22;58320;48.804;9.252;2023-11-21T06:18:18;7.60;99.90
70734;DHT22;58320;48.804;9.252;2023-11-21T06:20:46;7.60;99.90
70734;DHT22;58320;48.804;9.252;2023-11-21T06:23:12;7.60;99.90
70734;DHT22;58320;48.804;9.252;2023-11-21T06:25:39;7.60;99.90
70734;DHT22;58320;48.804;9.252;2023-11-21T06:28:05;7.60;99.90
70734;DHT22;58320;48.804;9.252;2023-11-21T06:30:31;7.60;99.90
70734;DHT22;58320;48.804;9.252;2023-11-21T06:32:57;7.60;99.90
70734;DHT22;58320;48.804;9.252;2023-11-21T06:35:23;7.60;99.90
70734;DHT22;58320;48.804;9.252;2023-11-21T06:37:49;7.60;99.90
70734;DHT22;58320;48.804;9.252;2023-11-21T06:40:15;7.70;99.90
70734;DHT22;58320;48.804;9.252;2023-11-21T06:42:41;7.70;99.90
70734;DHT22;58320;48.804;9.252;2023-11-21T06:45:07;7.70;99.90
70734;DHT22;58320;48.804;9.252;2023-11-21T06:47:36;7.70;99.50
70734;DHT22;58320;48.804;9.252;2023-11-21T06:50:03;7.80;99.70
70734;DHT22;58320;48.804;9.252;2023-11-21T06:52:29;7.80;99.80
70734;DHT22;58320;48.804;9.252;2023-11-21T06:54:55;7.80;99.70
70734;DHT22;58320;48.804;9.252;2023-11-21T06:57:22;7.90;99.60
70734;DHT22;58320;48.804;9.252;2023-11-21T06:59:48;7.90;99.60
70734;DHT22;58320;48.804;9.252;2023-11-21T07:02:16;7.90;99.70
70734;DHT22;58320;48.804;9.252;2023-11-21T07:04:46;7.90;99.70
70734;DHT22;58320;48.804;9.252;2023-11-21T07:07:12;7.90;99.30
70734;DHT22;58320;48.804;9.252;2023-11-21T07:09:38;8.00;98.70
70734;DHT22;58320;48.804;9.252;2023-11-21T07:12:04;8.00;98.60
70734;DHT22;58320;48.804;9.252;2023-11-21T07:14:36;8.00;98.30
70734;DHT22;58320;48.804;9.252;2023-11-21T07:17:02;8.10;98.50
70734;DHT22;58320;48.804;9.252;2023-11-21T07:19:28;8.10;98.50
70734;DHT22;58320;48.804;9.252;2023-11-21T07:21:54;8.20;97.90
70734;DHT22;58320;48.804;9.252;2023-11-21T07:24:20;8.20;97.80
70734;DHT22;58320;48.804;9.252;2023-11-21T07:26:46;8.20;97.20
70734;DHT22;58320;48.804;9.252;2023-11-21T07:29:13;8.20;97.30
70734;DHT22;58320;48.804;9.252;2023-11-21T07:31:39;8.20;96.90
70734;DHT22;58320;48.804;9.252;2023-11-21T07:34:06;8.20;96.20
70734;DHT22;58320;48.804;9.252;2023-11-21T07:36:33;8.20;96.60
70734;DHT22;58320;48.804;9.252;2023-11-21T07:38:59;8.30;96.90
70734;DHT22;58320;48.804;9.252;2023-11-21T07:41:25;8.30;96.80
70734;DHT22;58320;48.804;9.252;2023-11-21T07:43:51;8.30;96.90
70734;DHT22;58320;48.804;9.252;2023-11-21T07:46:16;8.40;96.70
70734;DHT22;58320;48.804;9.252;2023-11-21T07:48:43;8.40;96.70
70734;DHT22;58320;48.804;9.252;2023-11-21T07:51:09;8.50;96.20
70734;DHT22;58320;48.804;9.252;2023-11-21T07:53:36;8.50;95.30
70734;DHT22;58320;48.804;9.252;2023-11-21T07:56:06;8.50;94.70
70734;DHT22;58320;48.804;9.252;2023-11-21T07:58:36;8.50;94.90
70734;DHT22;58320;48.804;9.252;2023-11-21T08:01:03;8.50;94.60
70734;DHT22;58320;48.804;9.252;2023-11-21T08:03:29;8.50;94.50
70734;DHT22;58320;48.804;9.252;2023-11-21T08:05:59;8.50;95.10
70734;DHT22;58320;48.804;9.252;2023-11-21T08:08:25;8.50;94.40
70734;DHT22;58320;48.804;9.252;2023-11-21T08:10:51;8.50;93.80
70734;DHT22;58320;48.804;9.252;2023-11-21T08:13:26;8.60;94.50
70734;DHT22;58320;48.804;9.252;2023-11-21T08:15:57;8.60;94.60
70734;DHT22;58320;48.804;9.252;2023-11-21T08:18:27;8.70;94.50
70734;DHT22;58320;48.804;9.252;2023-11-21T08:20:54;8.70;92.80
70734;DHT22;58320;48.804;9.252;2023-11-21T08:23:20;8.70;93.50
70734;DHT22;58320;48.804;9.252;2023-11-21T08:25:51;8.80;93.40
70734;DHT22;58320;48.804;9.252;2023-11-21T08:28:18;8.80;93.40
70734;DHT22;58320;48.804;9.252;2023-11-21T08:30:44;8.80;93.20
70734;DHT22;58320;48.804;9.252;2023-11-21T08:33:10;8.80;93.40
70734;DHT22;58320;48.804;9.252;2023-11-21T08:35:37;8.90;93.40
70734;DHT22;58320;48.804;9.252;2023-11-21T08:38:03;8.90;93.40
70734;DHT22;58320;48.804;9.252;2023-11-21T08:40:29;8.90;94.10
70734;DHT22;58320;48.804;9.252;2023-11-21T08:42:55;9.00;93.50
70734;DHT22;58320;48.804;9.252;2023-11-21T08:45:21;9.00;91.60
70734;DHT22;58320;48.804;9.252;2023-11-21T08:47:48;9.10;91.70
70734;DHT22;58320;48.804;9.252;2023-11-21T08:50:14;9.20;92.40
70734;DHT22;58320;48.804;9.252;2023-11-21T08:52:40;9.40;91.80
70734;DHT22;58320;48.804;9.252;2023-11-21T08:55:07;9.50;89.20
70734;DHT22;58320;48.804;9.252;2023-11-21T08:57:37;9.50;89.60
70734;DHT22;58320;48.804;9.252;2023-11-21T09:00:07;9.60;88.70
70734;DHT22;58320;48.804;9.252;2023-11-21T09:02:39;9.70;88.80
70734;DHT22;58320;48.804;9.252;2023-11-21T09:05:08;9.80;87.80
70734;DHT22;58320;48.804;9.252;2023-11-21T09:07:35;9.90;88.20
70734;DHT22;58320;48.804;9.252;2023-11-21T09:10:05;10.00;87.90
70734;DHT22;58320;48.804;9.252;2023-11-21T09:12:33;9.90;87.00
70734;DHT22;58320;48.804;9.252;2023-11-21T09:15:04;9.80;86.90
70734;DHT22;58320;48.804;9.252;2023-11-21T09:17:31;9.80;87.40
70734;DHT22;58320;48.804;9.252;2023-11-21T09:19:57;9.90;87.20
70734;DHT22;58320;48.804;9.252;2023-11-21T09:22:23;9.90;85.70
70734;DHT22;58320;48.804;9.252;2023-11-21T09:24:51;10.00;86.80
70734;DHT22;58320;48.804;9.252;2023-11-21T09:27:17;10.20;85.50
70734;DHT22;58320;48.804;9.252;2023-11-21T09:29:43;10.40;85.10
70734;DHT22;58320;48.804;9.252;2023-11-21T09:32:09;10.50;82.90
70734;DHT22;58320;48.804;9.252;2023-11-21T09:34:38;10.60;83.20
70734;DHT22;58320;48.804;9.252;2023-11-21T09:37:07;10.80;83.90
70734;DHT22;58320;48.804;9.252;2023-11-21T09:39:33;10.90;83.00
70734;DHT22;58320;48.804;9.252;2023-11-21T09:42:23;11.00;82.00
70734;DHT22;58320;48.804;9.252;2023-11-21T09:45:03;11.10;82.10
70734;DHT22;58320;48.804;9.252;2023-11-21T09:47:35;10.90;80.80
70734;DHT22;58320;48.804;9.252;2023-11-21T09:50:04;10.70;82.80
70734;DHT22;58320;48.804;9.252;2023-11-21T09:53:04;10.70;83.20
70734;DHT22;58320;48.804;9.252;2023-11-21T09:55:30;10.80;82.20
70734;DHT22;58320;48.804;9.252;2023-11-21T09:58:03;10.70;83.50
70734;DHT22;58320;48.804;9.252;2023-11-21T10:00:30;10.50;81.80
70734;DHT22;58320;48.804;9.252;2023-11-21T10:02:58;10.20;83.40
70734;DHT22;58320;48.804;9.252;2023-11-21T10:05:24;10.10;84.60
70734;DHT22;58320;48.804;9.252;2023-11-21T10:07:51;10.00;85.80
70734;DHT22;58320;48.804;9.252;2023-11-21T10:10:22;10.10;87.80
70734;DHT22;58320;48.804;9.252;2023-11-21T10:12:50;10.30;88.60
70734;DHT22;58320;48.804;9.252;2023-11-21T10:15:23;10.60;87.20
70734;DHT22;58320;48.804;9.252;2023-11-21T10:17:53;10.80;85.40
70734;DHT22;58320;48.804;9.252;2023-11-21T10:20:21;10.80;85.20
70734;DHT22;58320;48.804;9.252;2023-11-21T10:22:49;10.80;85.00
70734;DHT22;58320;48.804;9.252;2023-11-21T10:25:15;10.80;84.40
70734;DHT22;58320;48.804;9.252;2023-11-21T10:27:44;10.70;83.40
70734;DHT22;58320;48.804;9.252;2023-11-21T10:30:13;10.60;84.10
70734;DHT22;58320;48.804;9.252;2023-11-21T10:32:41;10.40;84.30
70734;DHT22;58320;48.804;9.252;2023-11-21T10:35:08;10.20;85.70
70734;DHT22;58320;48.804;9.252;2023-11-21T10:37:38;10.00;86.80
70734;DHT22;58320;48.804;9.252;2023-11-21T10:40:10;9.80;87.90
70734;DHT22;58320;48.804;9.252;2023-11-21T10:42:39;9.70;89.10
70734;DHT22;58320;48.804;9.252;2023-11-21T10:45:06;9.60;90.80
70734;DHT22;58320;48.804;9.252;2023-11-21T10:47:42;9.50;91.30
70734;DHT22;58320;48.804;9.252;2023-11-21T10:50:09;9.40;92.50
70734;DHT22;58320;48.804;9.252;2023-11-21T10:52:42;9.30;94.40
70734;DHT22;58320;48.804;9.252;2023-11-21T10:55:20;9.30;95.30
70734;DHT22;58320;48.804;9.252;2023-11-21T10:57:49;9.30;95.90
70734;DHT22;58320;48.804;9.252;2023-11-21T11:00:19;9.30;96.40
70734;DHT22;58320;48.804;9.252;2023-11-21T11:02:51;9.40;97.10
70734;DHT22;58320;48.804;9.252;2023-11-21T11:05:19;9.50;97.90
70734;DHT22;58320;48.804;9.252;2023-11-21T11:07:48;9.50;96.00
70734;DHT22;58320;48.804;9.252;2023-11-21T11:10:22;9.60;95.70
70734;DHT22;58320;48.804;9.252;2023-11-21T11:12:51;9.70;96.10
70734;DHT22;58320;48.804;9.252;2023-11-21T11:15:19;9.80;95.30
70734;DHT22;58320;48.804;9.252;2023-11-21T11:17:46;10.00;93.50
70734;DHT22;58320;48.804;9.252;2023-11-21T11:20:13;10.20;91.90
70734;DHT22;58320;48.804;9.252;2023-11-21T11:23:11;10.30;91.90
70734;DHT22;58320;48.804;9.252;2023-11-21T11:29:18;10.80;88.50
70734;DHT22;58320;48.804;9.252;2023-11-21T11:35:06;11.20;86.90
70734;DHT22;58320;48.804;9.252;2023-11-21T11:37:43;11.20;84.30
70734;DHT22;58320;48.804;9.252;2023-11-21T11:40:11;11.10;85.80
70734;DHT22;58320;48.804;9.252;2023-11-21T11:42:37;11.10;86.80
70734;DHT22;58320;48.804;9.252;2023-11-21T11:45:17;11.20;85.70
70734;DHT22;58320;48.804;9.252;2023-11-21T11:47:44;11.20;85.00
70734;DHT22;58320;48.804;9.252;2023-11-21T11:50:13;11.20;85.00
70734;DHT22;58320;48.804;9.252;2023-11-21T11:52:47;11.30;85.20
70734;DHT22;58320;48.804;9.252;2023-11-21T11:55:17;11.40;83.10
70734;DHT22;58320;48.804;9.252;2023-11-21T11:57:45;11.20;83.50
70734;DHT22;58320;48.804;9.252;2023-11-21T12:00:18;11.10;84.30
70734;DHT22;58320;48.804;9.252;2023-11-21T12:02:50;11.10;83.30
70734;DHT22;58320;48.804;9.252;2023-11-21T12:05:21;10.90;83.30
70734;DHT22;58320;48.804;9.252;2023-11-21T12:07:52;10.80;83.90
70734;DHT22;58320;48.804;9.252;2023-11-21T12:10:26;10.70;83.80
70734;DHT22;58320;48.804;9.252;2023-11-21T12:13:07;10.60;84.40
70734;DHT22;58320;48.804;9.252;2023-11-21T12:15:34;10.60;85.20
70734;DHT22;58320;48.804;9.252;2023-11-21T12:18:00;10.50;86.10
70734;DHT22;58320;48.804;9.252;2023-11-21T12:20:27;10.50;86.90
70734;DHT22;58320;48.804;9.252;2023-11-21T12:22:55;10.50;86.90
70734;DHT22;58320;48.804;9.252;2023-11-21T12:25:26;10.40;87.40
70734;DHT22;58320;48.804;9.252;2023-11-21T12:27:58;10.50;87.90
70734;DHT22;58320;48.804;9.252;2023-11-21T12:30:27;10.70;88.40
70734;DHT22;58320;48.804;9.252;2023-11-21T12:32:57;10.90;88.30
70734;DHT22;58320;48.804;9.252;2023-11-21T12:35:25;11.10;88.30
70734;DHT22;58320;48.804;9.252;2023-11-21T12:37:53;11.20;85.70
70734;DHT22;58320;48.804;9.252;2023-11-21T12:40:20;11.20;85.90
70734;DHT22;58320;48.804;9.252;2023-11-21T12:42:50;11.30;86.00
70734;DHT22;58320;48.804;9.252;2023-11-21T12:45:20;11.20;85.50
70734;DHT22;58320;48.804;9.252;2023-11-21T12:47:53;11.20;85.70
70734;DHT22;58320;48.804;9.252;2023-11-21T12:50:24;11.20;84.50
70734;DHT22;58320;48.804;9.252;2023-11-21T12:52:55;11.10;85.10
70734;DHT22;58320;48.804;9.252;2023-11-21T12:55:24;11.10;85.40
70734;DHT22;58320;48.804;9.252;2023-11-21T12:57:52;11.00;86.20
70734;DHT22;58320;48.804;9.252;2023-11-21T13:00:32;11.00;86.50
70734;DHT22;58320;48.804;9.252;2023-11-21T13:03:04;11.20;86.00
70734;DHT22;58320;48.804;9.252;2023-11-21T13:05:34;11.40;85.00
70734;DHT22;58320;48.804;9.252;2023-11-21T13:08:05;11.70;84.70
70734;DHT22;58320;48.804;9.252;2023-11-21T13:10:34;12.00;84.50
70734;DHT22;58320;48.804;9.252;2023-11-21T13:13:08;12.30;80.10
70734;DHT22;58320;48.804;9.252;2023-11-21T13:15:38;12.30;80.60
70734;DHT22;58320;48.804;9.252;2023-11-21T13:18:06;12.30;80.50
70734;DHT22;58320;48.804;9.252;2023-11-21T13:20:32;12.10;80.30
70734;DHT22;58320;48.804;9.252;2023-11-21T13:22:59;11.80;80.40
70734;DHT22;58320;48.804;9.252;2023-11-21T13:25:27;11.40;80.60
70734;DHT22;58320;48.804;9.252;2023-11-21T13:27:57;11.00;83.00
70734;DHT22;58320;48.804;9.252;2023-11-21T13:30:24;10.60;85.50
70734;DHT22;58320;48.804;9.252;2023-11-21T13:32:59;10.20;88.60
70734;DHT22;58320;48.804;9.252;2023-11-21T13:35:32;9.90;90.10
70734;DHT22;58320;48.804;9.252;2023-11-21T13:38:11;9.60;91.60
70734;DHT22;58320;48.804;9.252;2023-11-21T13:40:40;9.40;93.90
70734;DHT22;58320;48.804;9.252;2023-11-21T13:43:17;9.30;94.70
70734;DHT22;58320;48.804;9.252;2023-11-21T13:45:47;9.30;95.60
70734;DHT22;58320;48.804;9.252;2023-11-21T13:48:16;9.30;95.80
70734;DHT22;58320;48.804;9.252;2023-11-21T13:50:50;9.30;96.30
70734;DHT22;58320;48.804;9.252;2023-11-21T13:53:48;9.30;96.40
70734;DHT22;58320;48.804;9.252;2023-11-21T13:56:18;9.20;96.40
70734;DHT22;58320;48.804;9.252;2023-11-21T13:58:52;9.20;96.70
70734;DHT22;58320;48.804;9.252;2023-11-21T14:01:19;9.20;97.20
70734;DHT22;58320;48.804;9.252;2023-11-21T14:03:54;9.20;97.10
70734;DHT22;58320;48.804;9.252;2023-11-21T14:06:27;9.20;97.70
70734;DHT22;58320;48.804;9.252;2023-11-21T14:09:02;9.20;98.20
70734;DHT22;58320;48.804;9.252;2023-11-21T14:11:31;9.30;98.60
70734;DHT22;58320;48.804;9.252;2023-11-21T14:13:57;9.30;98.20
70734;DHT22;58320;48.804;9.252;2023-11-21T14:16:24;9.30;97.50
70734;DHT22;58320;48.804;9.252;2023-11-21T14:18:50;9.30;97.50
70734;DHT22;58320;48.804;9.252;2023-11-21T14:21:22;9.20;97.60
70734;DHT22;58320;48.804;9.252;2023-11-21T14:23:48;9.20;97.90
70734;DHT22;58320;48.804;9.252;2023-11-21T14:26:14;9.20;98.10
70734;DHT22;58320;48.804;9.252;2023-11-21T14:28:41;9.20;98.00
70734;DHT22;58320;48.804;9.252;2023-11-21T14:31:08;9.20;97.90
70734;DHT22;58320;48.804;9.252;2023-11-21T14:33:40;9.10;98.20
70734;DHT22;58320;48.804;9.252;2023-11-21T14:36:07;9.10;98.70
70734;DHT22;58320;48.804;9.252;2023-11-21T14:38:36;9.20;98.90
70734;DHT22;58320;48.804;9.252;2023-11-21T14:41:05;9.20;98.60
70734;DHT22;58320;48.804;9.252;2023-11-21T14:43:35;9.20;98.00
70734;DHT22;58320;48.804;9.252;2023-11-21T14:46:01;9.20;97.60
70734;DHT22;58320;48.804;9.252;2023-11-21T14:48:29;9.20;97.30
70734;DHT22;58320;48.804;9.252;2023-11-21T14:51:13;9.20;97.00
70734;DHT22;58320;48.804;9.252;2023-11-21T14:53:58;9.20;96.90
70734;DHT22;58320;48.804;9.252;2023-11-21T14:56:33;9.20;96.70
70734;DHT22;58320;48.804;9.252;2023-11-21T14:59:00;9.20;95.60
70734;DHT22;58320;48.804;9.252;2023-11-21T15:01:40;9.10;95.70
70734;DHT22;58320;48.804;9.252;2023-11-21T15:04:10;9.10;95.90
70734;DHT22;58320;48.804;9.252;2023-11-21T15:06:54;9.10;95.80
70734;DHT22;58320;48.804;9.252;2023-11-21T15:09:22;9.00;95.40
70734;DHT22;58320;48.804;9.252;2023-11-21T15:11:53;9.00;95.90
70734;DHT22;58320;48.804;9.252;2023-11-21T15:14:24;9.00;96.20
70734;DHT22;58320;48.804;9.252;2023-11-21T15:16:51;9.00;96.80
70734;DHT22;58320;48.804;9.252;2023-11-21T15:19:18;9.00;96.70
70734;DHT22;58320;48.804;9.252;2023-11-21T15:21:50;8.90;96.90
70734;DHT22;58320;48.804;9.252;2023-11-21T15:24:16;8.90;97.20
70734;DHT22;58320;48.804;9.252;2023-11-21T15:26:42;8.90;97.40
70734;DHT22;58320;48.804;9.252;2023-11-21T15:29:08;8.80;97.40
70734;DHT22;58320;48.804;9.252;2023-11-21T15:31:34;8.80;97.40
70734;DHT22;58320;48.804;9.252;2023-11-21T15:34:01;8.80;97.70
70734;DHT22;58320;48.804;9.252;2023-11-21T15:36:27;8.80;97.80
70734;DHT22;58320;48.804;9.252;2023-11-21T15:38:53;8.80;98.20
70734;DHT22;58320;48.804;9.252;2023-11-21T15:41:19;8.80;97.90
70734;DHT22;58320;48.804;9.252;2023-11-21T15:43:45;8.80;97.90
70734;DHT22;58320;48.804;9.252;2023-11-21T15:46:14;8.70;98.00
70734;DHT22;58320;48.804;9.252;2023-11-21T15:48:39;8.70;97.80
70734;DHT22;58320;48.804;9.252;2023-11-21T15:51:09;8.70;98.00
70734;DHT22;58320;48.804;9.252;2023-11-21T15:53:37;8.70;98.00
70734;DHT22;58320;48.804;9.252;2023-11-21T15:56:07;8.60;97.80